Time;durP1;ratioP1;P1;durP2;ratioP2;P2;SDS_P1;SDS_P2;PMS_P1;PMS_P2;Temp;Humidity;BMP_temperature;BMP_pressure;BME280_temperature;BME280_humidity;BME280_pressure;Samples;Min_cycle;Max_cycle;Signal;HPM_P1;HPM_P2
2022/11/14 00:00:36;;;;;;;14.55;11.38;;;4.40;99.90;;;;;;5048661;28;20213;-84
2022/11/14 00:03:05;;;;;;;12.10;10.90;;;4.40;99.90;;;;;;5034167;28;20225;-83
2022/11/14 00:05:32;;;;;;;13.75;12.10;;;4.40;99.90;;;;;;5053634;28;20205;-84
2022/11/14 00:07:59;;;;;;;11.50;10.32;;;4.40;99.90;;;;;;5058400;28;20206;-83
2022/11/14 00:10:26;;;;;;;14.90;12.20;;;4.40;99.90;;;;;;5055134;28;20585;-84
2022/11/14 00:12:53;;;;;;;11.40;9.10;;;4.40;99.90;;;;;;5076422;22;20229;-85
2022/11/14 00:15:26;;;;;;;13.73;9.93;;;4.40;99.90;;;;;;5058581;28;20250;-84
2022/11/14 00:17:57;;;;;;;9.75;8.55;;;4.40;99.90;;;;;;5055761;28;20212;-85
2022/11/14 00:20:29;;;;;;;10.68;9.32;;;4.40;99.90;;;;;;5068880;28;20565;-84
2022/11/14 00:22:57;;;;;;;11.50;10.10;;;4.50;99.90;;;;;;5062749;28;20228;-85
2022/11/14 00:25:25;;;;;;;11.20;9.02;;;4.40;99.90;;;;;;5075692;28;20205;-85
2022/11/14 00:28:01;;;;;;;11.18;10.00;;;4.40;99.90;;;;;;5074821;28;20200;-85
2022/11/14 00:31:01;;;;;;;10.90;9.88;;;4.40;99.90;;;;;;5075714;28;20224;-84
2022/11/14 00:33:38;;;;;;;14.93;10.48;;;4.30;99.90;;;;;;5086354;28;20221;-83
2022/11/14 00:36:33;;;;;;;13.25;10.63;;;4.30;99.90;;;;;;5080334;28;20594;-85
2022/11/14 00:39:05;;;;;;;13.10;10.48;;;4.20;99.90;;;;;;5092317;28;20272;-83
2022/11/14 00:41:31;;;;;;;12.95;11.65;;;4.20;99.90;;;;;;5092664;28;20215;-85
2022/11/14 00:43:58;;;;;;;13.95;11.18;;;4.10;99.90;;;;;;5076235;28;20740;-84
2022/11/14 00:46:25;;;;;;;13.50;10.38;;;4.10;99.90;;;;;;5075822;28;20695;-83
2022/11/14 00:48:53;;;;;;;12.43;11.10;;;4.10;99.90;;;;;;5092714;28;20197;-83
2022/11/14 00:51:22;;;;;;;11.18;10.07;;;4.10;99.90;;;;;;5097082;28;20205;-82
2022/11/14 00:53:54;;;;;;;11.40;9.02;;;4.10;99.90;;;;;;5090865;28;20235;-84
2022/11/14 00:56:22;;;;;;;11.73;9.68;;;4.10;99.90;;;;;;5080538;28;20217;-84
2022/11/14 00:58:50;;;;;;;10.55;9.45;;;4.10;99.90;;;;;;5085435;28;20196;-84
2022/11/14 01:01:21;;;;;;;13.80;12.40;;;4.00;99.90;;;;;;5086085;28;20212;-85
2022/11/14 01:03:49;;;;;;;12.07;10.77;;;4.00;99.90;;;;;;5087292;28;20229;-85
2022/11/14 01:06:21;;;;;;;14.07;10.75;;;3.90;99.90;;;;;;5086873;28;20653;-84
2022/11/14 01:08:52;;;;;;;10.90;9.48;;;3.90;99.90;;;;;;5089915;28;20238;-84
2022/11/14 01:11:46;;;;;;;16.23;11.10;;;3.90;99.90;;;;;;5086962;28;20210;-84
2022/11/14 01:14:13;;;;;;;12.82;9.73;;;3.90;99.90;;;;;;5079999;28;20735;-84
2022/11/14 01:16:40;;;;;;;12.55;9.85;;;3.80;99.90;;;;;;5087966;28;20212;-84
2022/11/14 01:19:13;;;;;;;11.40;9.73;;;3.80;99.90;;;;;;5083641;28;20223;-84
2022/11/14 01:21:48;;;;;;;13.60;9.93;;;3.80;99.90;;;;;;5084188;28;20567;-83
2022/11/14 01:24:20;;;;;;;13.38;10.93;;;3.80;99.90;;;;;;5076283;28;20842;-85
2022/11/14 01:26:57;;;;;;;11.05;9.95;;;3.80;99.90;;;;;;5078936;28;20197;-83
2022/11/14 01:29:29;;;;;;;12.38;9.65;;;3.70;99.90;;;;;;5084054;28;20226;-84
2022/11/14 01:31:57;;;;;;;12.68;10.38;;;3.60;99.90;;;;;;5082734;28;20204;-84
2022/11/14 01:34:25;;;;;;;12.75;11.45;;;3.50;99.90;;;;;;5086896;28;20208;-84
2022/11/14 01:36:55;;;;;;;15.38;11.55;;;3.30;99.90;;;;;;5083085;28;20272;-84
2022/11/14 01:39:23;;;;;;;17.33;12.57;;;3.20;99.90;;;;;;5084393;28;20691;-84
2022/11/14 01:41:50;;;;;;;14.98;11.38;;;3.20;99.90;;;;;;5083075;28;20211;-84
2022/11/14 01:47:40;;;;;;;18.42;12.88;;;3.40;99.90;;;;;;5077892;28;20200;-85
2022/11/14 01:50:11;;;;;;;22.40;13.05;;;3.50;99.90;;;;;;5083537;28;20211;-84
2022/11/14 01:55:33;;;;;;;14.70;12.30;;;3.60;99.90;;;;;;5078689;28;20675;-84
2022/11/14 01:58:02;;;;;;;19.25;13.63;;;3.80;99.90;;;;;;5082012;28;20223;-85
2022/11/14 02:01:07;;;;;;;21.88;15.18;;;3.90;99.90;;;;;;5079311;28;20197;-84
2022/11/14 02:03:37;;;;;;;34.28;15.93;;;4.10;99.90;;;;;;5079423;28;20220;-85
2022/11/14 02:06:13;;;;;;;26.70;13.63;;;4.10;99.90;;;;;;5080683;28;20689;-84
2022/11/14 02:08:51;;;;;;;23.00;14.52;;;4.20;99.90;;;;;;5078738;28;20702;-84
2022/11/14 02:11:18;;;;;;;21.20;13.48;;;4.30;99.90;;;;;;5082473;28;20221;-84
2022/11/14 02:14:29;;;;;;;24.85;15.18;;;4.30;99.90;;;;;;5084078;28;20225;-84
2022/11/14 02:16:56;;;;;;;21.77;12.63;;;4.40;99.90;;;;;;5076296;28;20222;-85
2022/11/14 02:19:26;;;;;;;22.42;13.50;;;4.50;99.90;;;;;;5081237;28;20587;-83
2022/11/14 02:21:57;;;;;;;29.88;14.80;;;4.50;99.90;;;;;;5082611;28;20733;-84
2022/11/14 02:24:36;;;;;;;51.75;16.85;;;4.50;99.90;;;;;;5081198;28;20211;-84
2022/11/14 02:27:05;;;;;;;33.25;14.65;;;4.40;99.90;;;;;;5083722;28;20204;-84
2022/11/14 02:29:34;;;;;;;28.88;13.40;;;4.50;99.90;;;;;;5081870;28;20196;-85
2022/11/14 02:32:03;;;;;;;35.00;14.23;;;4.40;99.90;;;;;;5070433;28;20236;-83
2022/11/14 02:34:36;;;;;;;34.78;13.73;;;4.50;99.90;;;;;;5073611;28;20205;-84
2022/11/14 02:37:07;;;;;;;40.80;15.13;;;4.30;99.90;;;;;;5082550;28;20223;-84
2022/11/14 02:39:44;;;;;;;41.83;14.63;;;4.30;99.90;;;;;;5081590;28;20231;-84
2022/11/14 02:42:17;;;;;;;54.90;15.63;;;4.30;99.90;;;;;;5079504;28;20216;-83
2022/11/14 02:44:45;;;;;;;32.00;12.82;;;4.20;99.90;;;;;;5078822;28;20203;-84
2022/11/14 02:47:16;;;;;;;31.85;16.08;;;4.20;99.90;;;;;;5073157;28;20205;-84
2022/11/14 02:49:43;;;;;;;17.83;12.10;;;4.20;99.90;;;;;;5072411;28;20205;-84
2022/11/14 02:52:11;;;;;;;19.65;12.20;;;4.20;99.90;;;;;;5073043;28;20211;-84
2022/11/14 02:54:37;;;;;;;21.38;12.80;;;4.30;99.90;;;;;;5072569;28;20729;-84
2022/11/14 02:57:04;;;;;;;23.13;12.65;;;4.30;99.90;;;;;;5072107;28;20594;-85
2022/11/14 02:59:32;;;;;;;17.63;11.98;;;4.40;99.90;;;;;;5072382;28;20311;-84
2022/11/14 03:02:00;;;;;;;16.02;11.45;;;4.30;99.90;;;;;;5072170;28;20581;-84
2022/11/14 03:04:26;;;;;;;16.98;12.30;;;4.40;99.90;;;;;;5072820;28;20204;-84
2022/11/14 03:06:53;;;;;;;36.40;15.18;;;4.30;99.90;;;;;;5072834;28;20204;-84
2022/11/14 03:09:21;;;;;;;19.25;11.63;;;4.30;99.90;;;;;;5071856;28;20201;-83
2022/11/14 03:11:48;;;;;;;14.90;11.57;;;4.30;99.90;;;;;;5072113;28;20674;-84
2022/11/14 03:14:24;;;;;;;32.78;13.85;;;4.20;99.90;;;;;;5071685;28;20228;-84
2022/11/14 03:16:52;;;;;;;28.75;14.80;;;4.20;99.90;;;;;;5072116;28;20689;-84
2022/11/14 03:19:19;;;;;;;23.30;12.45;;;4.20;99.90;;;;;;5072253;28;20208;-83
2022/11/14 03:21:46;;;;;;;62.58;18.45;;;4.20;99.90;;;;;;5072088;28;20211;-84
2022/11/14 03:24:13;;;;;;;19.45;12.23;;;4.20;99.90;;;;;;5072088;28;20247;-84
2022/11/14 03:26:41;;;;;;;30.33;14.02;;;4.20;99.90;;;;;;5071695;28;20196;-84
2022/11/14 03:29:08;;;;;;;33.97;13.77;;;4.20;99.90;;;;;;5071836;28;20205;-84
2022/11/14 03:31:42;;;;;;;24.58;13.13;;;4.20;99.90;;;;;;5071657;28;20193;-83
2022/11/14 03:34:10;;;;;;;20.58;13.07;;;4.20;99.90;;;;;;5072277;28;20221;-84
2022/11/14 03:36:37;;;;;;;21.00;12.05;;;4.10;99.90;;;;;;5072339;28;20642;-83
2022/11/14 03:39:05;;;;;;;18.35;11.93;;;4.10;99.90;;;;;;5071526;28;20227;-84
2022/11/14 03:41:33;;;;;;;30.27;13.10;;;4.10;99.90;;;;;;5071844;28;20231;-84
2022/11/14 03:44:02;;;;;;;24.67;12.20;;;4.00;99.90;;;;;;5071627;28;20220;-84
2022/11/14 03:46:30;;;;;;;15.90;10.90;;;4.00;99.90;;;;;;5072089;28;20235;-83
2022/11/14 03:48:59;;;;;;;18.48;11.27;;;4.00;99.90;;;;;;5075020;28;20200;-84
2022/11/14 03:51:26;;;;;;;14.80;10.80;;;3.90;99.90;;;;;;5075806;28;20743;-84
2022/11/14 03:54:14;;;;;;;12.77;11.10;;;3.80;99.90;;;;;;5075475;28;20233;-84
2022/11/14 03:56:41;;;;;;;12.75;9.68;;;3.80;99.90;;;;;;5075395;28;20294;-84
2022/11/14 04:01:58;;;;;;;12.30;11.07;;;3.80;99.90;;;;;;5074881;28;20216;-84
2022/11/14 04:04:46;;;;;;;13.45;10.50;;;3.80;99.90;;;;;;5073122;28;20208;-84
2022/11/14 04:07:19;;;;;;;9.77;8.75;;;3.60;99.90;;;;;;5075519;28;20687;-84
2022/11/14 04:16:16;;;;;;;10.57;9.25;;;3.30;99.90;;;;;;5064770;28;20251;-85
2022/11/14 04:18:44;;;;;;;12.27;9.43;;;3.40;99.90;;;;;;5075263;28;20296;-84
2022/11/14 04:21:29;;;;;;;14.57;10.05;;;3.50;99.90;;;;;;5075237;28;20215;-84
2022/11/14 04:24:00;;;;;;;10.93;8.70;;;3.50;99.90;;;;;;5071844;28;20306;-84
2022/11/14 04:26:35;;;;;;;11.10;10.07;;;3.60;99.90;;;;;;5057444;28;20200;-84
2022/11/14 04:29:05;;;;;;;12.00;9.35;;;3.60;99.90;;;;;;5074330;28;20592;-84
2022/11/14 04:31:33;;;;;;;11.77;10.45;;;3.70;99.90;;;;;;5075489;28;20216;-84
2022/11/14 04:34:00;;;;;;;10.82;9.77;;;3.70;99.90;;;;;;5075041;28;20224;-84
2022/11/14 04:36:27;;;;;;;12.32;9.52;;;3.70;99.90;;;;;;5075399;28;20212;-84
2022/11/14 04:39:01;;;;;;;10.75;9.75;;;3.70;99.90;;;;;;5074974;28;20221;-84
2022/11/14 04:41:29;;;;;;;12.32;9.70;;;3.80;99.90;;;;;;5074988;28;20198;-84
2022/11/14 04:43:56;;;;;;;14.57;11.93;;;3.90;99.90;;;;;;5075134;28;20250;-84
2022/11/14 04:46:22;;;;;;;11.27;10.10;;;3.90;99.90;;;;;;5074675;28;20208;-85
2022/11/14 04:48:51;;;;;;;14.00;9.70;;;3.90;99.90;;;;;;5074816;28;20564;-84
2022/11/14 04:51:19;;;;;;;10.93;9.30;;;3.90;99.90;;;;;;5074978;28;20204;-84
2022/11/14 04:53:47;;;;;;;11.65;10.45;;;3.90;99.90;;;;;;5072641;28;20229;-84
2022/11/14 04:56:22;;;;;;;10.13;9.13;;;3.90;99.90;;;;;;5074672;28;20748;-84
2022/11/14 04:58:49;;;;;;;10.15;9.05;;;4.00;99.90;;;;;;5074530;28;20575;-84
2022/11/14 05:01:16;;;;;;;10.77;8.95;;;4.00;99.90;;;;;;5074612;28;20295;-83
2022/11/14 05:04:05;;;;;;;13.70;9.70;;;4.00;99.90;;;;;;5080003;28;20265;-84
2022/11/14 05:09:15;;;;;;;11.60;9.90;;;4.00;99.90;;;;;;5085056;28;20215;-84
2022/11/14 05:14:41;;;;;;;11.30;8.75;;;3.90;99.90;;;;;;5075207;28;20216;-84
2022/11/14 05:17:29;;;;;;;11.93;10.38;;;4.00;99.90;;;;;;5085346;28;20216;-85
2022/11/14 05:19:56;;;;;;;11.95;10.57;;;4.00;99.90;;;;;;5065265;28;20209;-84
2022/11/14 05:22:28;;;;;;;13.48;11.43;;;4.00;99.90;;;;;;5082046;28;20251;-84
2022/11/14 05:24:55;;;;;;;14.73;10.07;;;4.00;99.90;;;;;;5067773;28;20610;-84
2022/11/14 05:27:23;;;;;;;13.25;11.48;;;4.00;99.90;;;;;;5079253;28;20595;-83
2022/11/14 05:29:51;;;;;;;15.02;10.85;;;4.00;99.90;;;;;;5084264;28;20697;-84
2022/11/14 05:32:29;;;;;;;11.82;9.73;;;4.00;99.90;;;;;;5077489;28;20223;-85
2022/11/14 05:34:56;;;;;;;10.95;9.85;;;4.00;99.90;;;;;;5077034;28;20211;-85
2022/11/14 05:37:29;;;;;;;15.48;9.95;;;3.80;99.90;;;;;;5086042;28;20716;-84
2022/11/14 05:39:56;;;;;;;10.05;9.05;;;3.80;99.90;;;;;;5065408;28;20202;-84
2022/11/14 05:42:23;;;;;;;11.30;9.05;;;3.90;99.90;;;;;;5084988;28;20216;-83
2022/11/14 05:44:50;;;;;;;11.35;9.32;;;3.90;99.90;;;;;;5094294;28;20696;-85
2022/11/14 05:47:17;;;;;;;11.98;8.05;;;3.90;99.90;;;;;;5085116;28;20567;-84
2022/11/14 05:49:44;;;;;;;10.98;9.80;;;4.00;99.90;;;;;;5074198;28;20211;-84
2022/11/14 05:52:36;;;;;;;12.07;10.18;;;4.10;99.90;;;;;;5074554;28;20630;-84
2022/11/14 05:55:03;;;;;;;13.18;9.88;;;4.20;99.90;;;;;;5073665;28;20209;-84
2022/11/14 05:57:31;;;;;;;11.10;9.98;;;4.20;99.90;;;;;;5073993;28;20702;-84
2022/11/14 05:59:59;;;;;;;13.18;11.80;;;4.20;99.90;;;;;;5073512;28;20204;-84
2022/11/14 06:05:12;;;;;;;15.38;11.98;;;4.30;99.90;;;;;;5072532;28;20608;-84
2022/11/14 06:07:41;;;;;;;15.27;11.50;;;4.40;99.90;;;;;;5073770;28;20201;-84
2022/11/14 06:10:08;;;;;;;11.05;9.98;;;4.40;99.90;;;;;;5075511;28;20204;-84
2022/11/14 06:12:41;;;;;;;14.77;13.32;;;4.40;99.90;;;;;;5075141;28;20232;-84
2022/11/14 06:15:09;;;;;;;14.73;11.40;;;4.50;99.90;;;;;;5089502;28;20226;-84
2022/11/14 06:17:36;;;;;;;13.63;11.40;;;4.40;99.90;;;;;;5093579;28;20228;-83
2022/11/14 06:20:03;;;;;;;9.43;8.45;;;4.40;99.90;;;;;;5094321;28;20236;-83
2022/11/14 06:22:30;;;;;;;11.68;8.90;;;4.40;99.90;;;;;;5087006;28;20213;-84
2022/11/14 06:24:58;;;;;;;10.20;9.20;;;4.50;99.90;;;;;;5081002;28;20209;-83
2022/11/14 06:27:26;;;;;;;12.00;9.02;;;4.40;99.90;;;;;;5080580;28;20569;-83
2022/11/14 06:29:53;;;;;;;9.75;8.15;;;4.50;99.90;;;;;;5080785;28;20450;-83
2022/11/14 06:32:22;;;;;;;10.35;9.10;;;4.70;99.90;;;;;;5082245;28;20310;-84
2022/11/14 06:34:50;;;;;;;11.82;8.93;;;4.60;99.90;;;;;;5092007;28;20233;-83
2022/11/14 06:37:17;;;;;;;11.90;10.18;;;4.70;99.90;;;;;;5086746;28;20212;-83
2022/11/14 06:39:44;;;;;;;10.23;9.20;;;4.80;99.90;;;;;;5082940;28;20223;-86
2022/11/14 06:42:12;;;;;;;9.10;8.18;;;4.90;99.90;;;;;;5080604;28;20213;-84
2022/11/14 06:44:42;;;;;;;10.45;8.40;;;4.90;99.90;;;;;;5080724;28;20287;-84
2022/11/14 06:47:09;;;;;;;7.78;6.43;;;5.00;99.90;;;;;;5081371;28;20631;-84
2022/11/14 06:49:35;;;;;;;8.95;8.02;;;5.10;99.90;;;;;;5075102;28;20236;-84
2022/11/14 06:52:02;;;;;;;9.68;8.57;;;5.10;99.90;;;;;;5080128;28;20232;-83
2022/11/14 06:54:29;;;;;;;9.93;8.88;;;4.90;99.90;;;;;;5082040;28;20296;-82
2022/11/14 06:56:56;;;;;;;13.07;8.95;;;5.00;99.90;;;;;;5079534;28;20280;-82
2022/11/14 06:59:24;;;;;;;9.70;8.70;;;5.00;99.90;;;;;;5079292;28;20221;-82
2022/11/14 07:01:51;;;;;;;10.25;8.02;;;5.10;99.90;;;;;;5079756;28;20268;-82
2022/11/14 07:04:18;;;;;;;9.25;8.35;;;5.20;99.90;;;;;;5079614;28;20239;-85
2022/11/14 07:06:46;;;;;;;8.27;7.47;;;5.20;99.90;;;;;;5074183;28;20209;-84
2022/11/14 07:09:17;;;;;;;9.45;8.20;;;5.40;99.90;;;;;;5074128;28;20292;-84
2022/11/14 07:11:45;;;;;;;9.38;8.50;;;5.40;99.90;;;;;;5074113;28;20225;-84
2022/11/14 07:17:36;;;;;;;11.02;9.43;;;5.60;99.90;;;;;;5078663;28;20283;-84
2022/11/14 07:20:03;;;;;;;9.20;8.23;;;5.60;99.90;;;;;;5073457;28;20268;-85
2022/11/14 07:22:30;;;;;;;10.18;9.15;;;5.60;99.90;;;;;;5073952;28;20224;-83
2022/11/14 07:24:56;;;;;;;9.45;8.10;;;5.50;99.90;;;;;;5075269;28;20215;-84
2022/11/14 07:27:46;;;;;;;8.40;7.60;;;5.60;99.90;;;;;;5075984;28;20201;-84
2022/11/14 07:30:14;;;;;;;9.20;7.82;;;5.50;99.90;;;;;;5078468;28;20197;-84
2022/11/14 07:32:45;;;;;;;9.15;7.78;;;5.50;99.90;;;;;;5076937;28;20217;-84
2022/11/14 07:35:13;;;;;;;10.52;9.00;;;5.40;99.90;;;;;;5075683;28;20646;-84
2022/11/14 07:37:42;;;;;;;10.77;9.77;;;5.40;99.90;;;;;;5076858;28;20300;-83
2022/11/14 07:40:10;;;;;;;9.98;8.15;;;5.50;99.90;;;;;;5076221;28;20218;-84
2022/11/14 07:42:37;;;;;;;9.23;8.32;;;5.50;99.90;;;;;;5075934;28;20244;-84
2022/11/14 07:45:05;;;;;;;13.05;8.38;;;5.50;99.90;;;;;;5077658;28;20223;-83
2022/11/14 07:47:31;;;;;;;11.15;9.32;;;5.50;99.90;;;;;;5076521;28;20205;-84
2022/11/14 07:49:59;;;;;;;9.98;8.10;;;5.50;99.90;;;;;;5075580;28;20201;-84
2022/11/14 07:52:26;;;;;;;12.20;9.30;;;5.70;99.90;;;;;;5076615;28;20728;-84
2022/11/14 07:54:53;;;;;;;10.57;9.00;;;5.80;99.90;;;;;;5079616;28;20221;-84
2022/11/14 07:57:20;;;;;;;10.05;8.18;;;5.80;99.90;;;;;;5078228;28;20205;-84
2022/11/14 07:59:46;;;;;;;14.13;9.43;;;5.90;99.90;;;;;;5076970;28;20235;-83
2022/11/14 08:02:15;;;;;;;10.02;9.02;;;6.00;99.90;;;;;;5076057;28;20662;-83
2022/11/14 08:04:42;;;;;;;9.35;8.38;;;6.10;99.90;;;;;;5078435;28;20562;-83
2022/11/14 08:07:10;;;;;;;10.07;7.57;;;6.20;99.90;;;;;;5082600;28;20208;-83
2022/11/14 08:09:37;;;;;;;9.25;8.35;;;6.30;99.90;;;;;;5082089;28;20197;-82
2022/11/14 08:12:04;;;;;;;8.90;8.00;;;6.30;99.90;;;;;;5079804;28;20207;-82
2022/11/14 08:14:31;;;;;;;9.10;8.25;;;6.30;99.90;;;;;;5077362;28;20213;-84
2022/11/14 08:16:58;;;;;;;10.68;8.50;;;6.40;99.90;;;;;;5080562;28;20207;-81
2022/11/14 08:19:25;;;;;;;9.13;8.23;;;6.50;99.90;;;;;;5079829;28;20233;-86
2022/11/14 08:21:51;;;;;;;10.68;8.43;;;6.60;99.90;;;;;;5078136;28;20208;-81
2022/11/14 08:24:21;;;;;;;9.80;7.20;;;6.70;99.90;;;;;;5085262;28;20225;-82
2022/11/14 08:26:48;;;;;;;8.80;7.88;;;6.70;99.90;;;;;;5092535;28;20189;-81
2022/11/14 08:29:14;;;;;;;8.60;6.85;;;6.80;99.90;;;;;;5079563;28;20205;-81
2022/11/14 08:31:41;;;;;;;8.07;7.28;;;6.80;99.90;;;;;;5078255;28;20208;-81
2022/11/14 08:34:10;;;;;;;11.43;7.00;;;6.80;99.90;;;;;;5077136;28;20228;-85
2022/11/14 09:48:21;;;;;;;5.63;3.53;;;9.00;99.90;;;;;;5050444;28;20202;-86
2022/11/14 09:51:03;;;;;;;6.18;3.95;;;9.10;99.90;;;;;;5052188;28;20249;-85
2022/11/14 09:53:49;;;;;;;5.00;3.75;;;9.10;99.90;;;;;;5067896;28;20698;-86
2022/11/14 09:56:37;;;;;;;4.28;3.47;;;9.10;99.90;;;;;;5088788;28;20256;-87
2022/11/14 09:59:22;;;;;;;4.13;3.60;;;9.30;99.90;;;;;;5070300;28;20252;-85
2022/11/14 10:02:06;;;;;;;4.10;3.80;;;9.40;99.90;;;;;;5071886;28;20216;-86
2022/11/14 10:04:49;;;;;;;4.85;4.00;;;9.60;99.90;;;;;;5071068;28;20681;-87
2022/11/14 10:07:27;;;;;;;6.53;5.20;;;9.70;99.90;;;;;;5072278;28;20198;-87
2022/11/14 10:10:04;;;;;;;5.17;4.63;;;9.80;99.90;;;;;;5071809;28;20446;-86
2022/11/14 10:12:42;;;;;;;8.00;5.60;;;10.00;99.90;;;;;;5072770;28;20469;-84
2022/11/14 10:19:01;;;;;;;5.70;5.17;;;10.30;99.90;;;;;;5067992;28;20831;-86
2022/11/14 10:29:06;;;;;;;6.07;5.47;;;10.90;99.90;;;;;;5028091;28;20511;-87
2022/11/14 10:31:44;;;;;;;5.77;5.20;;;11.10;99.90;;;;;;5027582;28;20848;-86
2022/11/14 10:34:18;;;;;;;4.50;4.10;;;11.10;99.90;;;;;;5031222;28;20475;-84
2022/11/14 10:40:27;;;;;;;5.70;5.00;;;11.20;99.90;;;;;;5077864;28;20503;-87
2022/11/14 10:46:32;;;;;;;7.30;5.33;;;11.20;99.90;;;;;;5073356;28;20405;-90
2022/11/14 10:49:00;;;;;;;5.47;4.97;;;11.20;99.90;;;;;;5071596;28;20462;-86
2022/11/14 10:51:38;;;;;;;5.20;4.70;;;11.30;99.90;;;;;;5072408;28;20457;-88
2022/11/14 10:54:13;;;;;;;5.70;5.30;;;11.40;99.90;;;;;;5072521;28;20884;-86
2022/11/14 10:56:46;;;;;;;5.10;4.70;;;11.50;99.90;;;;;;5052367;28;20525;-85
2022/11/14 11:02:50;;;;;;;4.60;4.30;;;11.70;99.90;;;;;;5065297;28;20454;-89
2022/11/14 11:05:20;;;;;;;5.40;4.80;;;11.90;99.90;;;;;;5072754;28;20455;-82
2022/11/14 11:13:31;;;;;;;3.43;3.10;;;12.50;99.90;;;;;;5070130;28;20811;-83
2022/11/14 11:16:00;;;;;;;3.67;2.87;;;12.70;99.90;;;;;;5072537;28;20549;-84
2022/11/14 11:18:29;;;;;;;2.73;2.53;;;13.10;99.90;;;;;;5072430;28;20495;-84
2022/11/14 11:21:05;;;;;;;1.90;1.80;;;13.40;99.90;;;;;;5072650;28;20542;-84
2022/11/14 11:24:02;;;;;;;2.00;1.90;;;13.60;99.90;;;;;;5072246;28;20463;-86
2022/11/14 11:26:52;;;;;;;2.23;2.00;;;13.50;99.90;;;;;;5071501;28;20447;-87
2022/11/14 11:29:20;;;;;;;1.30;1.20;;;13.40;99.90;;;;;;5072019;28;20447;-86
2022/11/14 11:31:51;;;;;;;2.67;1.83;;;13.20;99.90;;;;;;5072469;28;20466;-86
2022/11/14 11:34:23;;;;;;;1.87;1.60;;;13.00;99.90;;;;;;5072304;28;20477;-86
2022/11/14 11:36:57;;;;;;;2.07;1.60;;;12.70;99.90;;;;;;5072261;28;20454;-86
2022/11/14 11:39:28;;;;;;;1.70;1.60;;;12.40;99.90;;;;;;5072230;28;20482;-85
2022/11/14 11:41:58;;;;;;;1.60;1.50;;;12.30;99.90;;;;;;5072582;28;20458;-85
2022/11/14 11:44:33;;;;;;;1.57;1.47;;;12.10;99.90;;;;;;5072576;28;20446;-85
2022/11/14 11:47:03;;;;;;;2.00;1.90;;;11.90;99.90;;;;;;5072659;28;20461;-85
2022/11/14 11:49:40;;;;;;;1.60;1.50;;;11.90;99.90;;;;;;5072211;28;20450;-85
2022/11/14 11:52:13;;;;;;;1.47;1.37;;;11.80;99.90;;;;;;5072502;28;20443;-85
2022/11/14 11:54:50;;;;;;;1.53;1.43;;;11.70;99.90;;;;;;5072572;28;20446;-85
2022/11/14 11:57:19;;;;;;;1.57;1.47;;;11.70;99.90;;;;;;5072218;28;20454;-85
2022/11/14 11:59:49;;;;;;;2.33;2.13;;;11.70;99.90;;;;;;5083635;28;20481;-85
2022/11/14 12:02:23;;;;;;;1.50;1.40;;;11.60;99.90;;;;;;5086630;28;21066;-85
2022/11/14 12:04:51;;;;;;;1.60;1.50;;;11.50;99.90;;;;;;5081304;28;20442;-85
2022/11/14 12:07:22;;;;;;;2.80;2.20;;;11.50;99.90;;;;;;5083488;28;20461;-85
2022/11/14 12:09:50;;;;;;;1.80;1.70;;;11.40;99.90;;;;;;5080630;28;20446;-85
2022/11/14 12:14:55;;;;;;;1.50;1.40;;;11.40;99.90;;;;;;5060919;28;20473;-82
2022/11/14 12:18:01;;;;;;;1.63;1.53;;;11.50;99.90;;;;;;5061638;28;20447;-84
2022/11/14 12:20:53;;;;;;;1.40;1.30;;;11.60;99.90;;;;;;5044458;28;20493;-81
2022/11/14 12:24:26;;;;;;;2.20;1.97;;;11.60;99.90;;;;;;5061811;28;20561;-82
2022/11/14 12:27:06;;;;;;;1.67;1.57;;;11.80;99.90;;;;;;4980498;28;20455;-81
2022/11/14 12:29:48;;;;;;;1.70;1.60;;;11.90;99.90;;;;;;4980255;28;20454;-84
2022/11/14 12:32:23;;;;;;;2.60;1.60;;;12.20;99.90;;;;;;5031978;28;20453;-82
2022/11/14 12:34:51;;;;;;;1.20;1.20;;;13.00;99.90;;;;;;5061678;28;20454;-81
2022/11/14 12:37:22;;;;;;;4.50;1.97;;;13.50;99.90;;;;;;5061055;28;20483;-81
2022/11/14 12:39:58;;;;;;;1.63;1.53;;;14.20;99.90;;;;;;5061416;28;20487;-82
2022/11/14 12:42:25;;;;;;;1.53;1.43;;;15.00;99.90;;;;;;5061441;28;20451;-82
2022/11/14 12:44:52;;;;;;;1.53;1.43;;;15.60;99.90;;;;;;5061598;28;20467;-82
2022/11/14 12:47:21;;;;;;;3.63;1.80;;;16.30;99.90;;;;;;5072462;28;20523;-82
2022/11/14 12:50:19;;;;;;;1.97;1.63;;;16.80;99.90;;;;;;5061857;28;20953;-81
2022/11/14 12:52:48;;;;;;;2.10;1.27;;;17.30;99.90;;;;;;5044855;28;20492;-82
2022/11/14 12:55:55;;;;;;;1.50;1.40;;;17.60;99.90;;;;;;5061635;28;20968;-82
2022/11/14 12:58:43;;;;;;;1.70;1.60;;;17.70;99.30;;;;;;5060942;28;20455;-82
2022/11/14 13:01:34;;;;;;;1.50;1.40;;;17.30;99.90;;;;;;5061234;28;20439;-82
2022/11/14 13:04:17;;;;;;;2.37;1.60;;;17.00;99.50;;;;;;5057384;28;21054;-82
2022/11/14 13:06:57;;;;;;;2.13;2.03;;;16.70;99.90;;;;;;5060717;28;20452;-82
2022/11/14 13:09:33;;;;;;;1.53;1.43;;;17.10;99.90;;;;;;5060444;28;20445;-82
2022/11/14 13:23:58;;;;;;;1.40;1.30;;;16.40;98.90;;;;;;5060827;28;20453;-82
2022/11/14 13:26:38;;;;;;;1.43;1.33;;;16.00;99.60;;;;;;5061230;28;20448;-82
2022/11/14 13:29:07;;;;;;;1.50;1.40;;;16.10;99.80;;;;;;5060872;28;20456;-82
2022/11/14 13:31:47;;;;;;;1.50;1.40;;;16.10;99.90;;;;;;5060582;28;20450;-82
2022/11/14 13:34:49;;;;;;;2.30;2.20;;;16.30;99.90;;;;;;5061419;28;20468;-81
2022/11/14 13:37:39;;;;;;;1.80;1.70;;;16.50;99.30;;;;;;4979466;28;20516;-81
2022/11/14 13:40:14;;;;;;;1.57;1.47;;;16.50;99.40;;;;;;5061591;28;20497;-81
2022/11/14 13:42:51;;;;;;;2.13;2.03;;;16.50;99.50;;;;;;5071258;28;20562;-82
2022/11/14 13:45:38;;;;;;;3.07;1.50;;;16.70;98.80;;;;;;5060764;28;20475;-82
2022/11/14 13:48:45;;;;;;;1.70;1.60;;;16.70;98.60;;;;;;5060116;28;20819;-82
2022/11/14 13:51:16;;;;;;;2.40;1.57;;;16.90;98.60;;;;;;5062340;28;20452;-85
2022/11/14 13:53:43;;;;;;;1.40;1.30;;;16.70;98.90;;;;;;5060645;28;20464;-84
2022/11/14 13:56:24;;;;;;;2.60;1.50;;;16.60;98.70;;;;;;5062036;28;20459;-80
2022/11/14 13:59:20;;;;;;;1.90;1.77;;;16.50;98.70;;;;;;5063222;28;20448;-82
2022/11/14 14:02:07;;;;;;;1.50;1.40;;;16.40;98.90;;;;;;5062979;28;20451;-83
2022/11/14 14:04:46;;;;;;;5.43;2.07;;;16.40;98.60;;;;;;5063168;28;20473;-80
2022/11/14 14:07:23;;;;;;;1.33;1.23;;;16.30;99.40;;;;;;5063374;28;20452;-81
2022/11/14 14:09:59;;;;;;;3.27;1.90;;;16.20;99.10;;;;;;5061081;28;20450;-81
2022/11/14 14:12:41;;;;;;;2.30;1.80;;;16.00;99.00;;;;;;5063532;28;20526;-82
2022/11/14 14:15:20;;;;;;;2.63;1.90;;;15.80;99.20;;;;;;5064885;28;20905;-82
2022/11/14 14:18:02;;;;;;;2.23;2.03;;;15.50;99.10;;;;;;5060252;28;20448;-84
2022/11/14 14:20:42;;;;;;;1.70;1.60;;;15.00;99.80;;;;;;5062818;28;20511;-81
2022/11/14 14:23:22;;;;;;;2.80;2.10;;;14.80;99.90;;;;;;5059052;28;20477;-84
2022/11/14 14:26:00;;;;;;;2.00;1.90;;;14.90;99.90;;;;;;5058965;28;20432;-83
2022/11/14 14:28:39;;;;;;;1.90;1.80;;;14.80;99.90;;;;;;5058659;28;20476;-84
2022/11/14 14:31:11;;;;;;;12.07;2.33;;;14.80;99.90;;;;;;5058960;28;20450;-83
2022/11/14 14:33:44;;;;;;;1.60;1.50;;;14.70;99.90;;;;;;5059613;28;20472;-82
2022/11/14 14:36:24;;;;;;;2.07;1.87;;;14.40;99.90;;;;;;5071250;28;20453;-81
2022/11/14 14:38:51;;;;;;;1.80;1.70;;;14.30;99.90;;;;;;5060288;28;20873;-83
2022/11/14 14:41:19;;;;;;;1.87;1.77;;;14.30;99.90;;;;;;5058899;28;20849;-82
2022/11/14 14:43:54;;;;;;;2.80;1.83;;;14.30;99.90;;;;;;5058429;28;20494;-82
2022/11/14 14:46:29;;;;;;;1.83;1.73;;;14.40;99.90;;;;;;5057990;28;20511;-82
2022/11/14 14:48:59;;;;;;;3.33;1.70;;;14.50;99.90;;;;;;5058723;28;20828;-82
2022/11/14 14:51:34;;;;;;;1.80;1.70;;;14.40;99.90;;;;;;5058960;28;20819;-83
2022/11/14 14:54:01;;;;;;;2.30;1.90;;;14.10;99.90;;;;;;5058964;28;20467;-83
2022/11/14 14:56:28;;;;;;;2.07;1.83;;;13.90;99.90;;;;;;5058931;28;20448;-82
2022/11/14 14:58:55;;;;;;;2.10;1.90;;;13.70;99.90;;;;;;5058373;28;20460;-82
2022/11/14 15:01:26;;;;;;;2.70;2.50;;;13.70;99.90;;;;;;5058826;28;20516;-82
2022/11/14 15:03:57;;;;;;;2.93;2.73;;;13.60;99.90;;;;;;5058578;28;20552;-82
2022/11/14 15:06:30;;;;;;;1.60;1.50;;;13.40;99.90;;;;;;5058381;28;20456;-81
2022/11/14 15:08:57;;;;;;;3.80;2.67;;;13.30;99.90;;;;;;5058460;28;20464;-82
2022/11/14 15:11:26;;;;;;;1.80;1.70;;;13.10;99.90;;;;;;5058521;28;20448;-82
2022/11/14 15:13:56;;;;;;;2.67;2.47;;;13.00;99.90;;;;;;5058264;28;20472;-82
2022/11/14 15:16:24;;;;;;;1.80;1.70;;;12.90;99.90;;;;;;5058403;28;20871;-82
2022/11/14 15:18:53;;;;;;;3.13;1.90;;;13.00;99.90;;;;;;5057706;28;20462;-82
2022/11/14 15:21:27;;;;;;;3.10;2.80;;;13.00;99.90;;;;;;5057948;28;20490;-82
2022/11/14 15:24:01;;;;;;;2.30;2.20;;;12.80;99.90;;;;;;5058368;28;20479;-82
2022/11/14 15:26:30;;;;;;;2.40;2.20;;;12.70;99.90;;;;;;5058436;28;20531;-82
2022/11/14 15:29:11;;;;;;;3.50;3.20;;;12.80;99.90;;;;;;5065568;28;20483;-78
2022/11/14 15:31:38;;;;;;;2.67;2.47;;;12.70;99.90;;;;;;5059806;28;20462;-82
2022/11/14 15:34:20;;;;;;;3.03;2.73;;;12.70;99.90;;;;;;5058194;28;20474;-81